sensor_id;sensor_type;location;lat;lon;timestamp;pressure;altitude;pressure_sealevel;temperature;humidity
79123;BME280;68526;44.600;26.032;2023-12-20T00:00:01;100767.06;;;1.54;83.62
79123;BME280;68526;44.600;26.032;2023-12-20T00:00:18;100773.50;;;1.53;83.38
79123;BME280;68526;44.600;26.032;2023-12-20T00:00:34;100764.91;;;1.56;83.48
79123;BME280;68526;44.600;26.032;2023-12-20T00:00:50;100768.44;;;1.57;83.57
79123;BME280;68526;44.600;26.032;2023-12-20T00:01:06;100766.78;;;1.56;83.62
79123;BME280;68526;44.600;26.032;2023-12-20T00:01:22;100770.31;;;1.56;83.59
79123;BME280;68526;44.600;26.032;2023-12-20T00:01:38;100763.84;;;1.57;82.95
79123;BME280;68526;44.600;26.032;2023-12-20T00:01:55;100762.22;;;1.56;83.47
79123;BME280;68526;44.600;26.032;2023-12-20T00:02:11;100772.19;;;1.56;83.37
79123;BME280;68526;44.600;26.032;2023-12-20T00:02:27;100767.06;;;1.54;83.51
79123;BME280;68526;44.600;26.032;2023-12-20T00:02:43;100762.69;;;1.53;83.70
79123;BME280;68526;44.600;26.032;2023-12-20T00:03:02;100764.91;;;1.56;83.76
79123;BME280;68526;44.600;26.032;2023-12-20T00:03:18;100760.31;;;1.57;84.10
79123;BME280;68526;44.600;26.032;2023-12-20T00:03:35;100761.13;;;1.57;83.46
79123;BME280;68526;44.600;26.032;2023-12-20T00:03:52;100756.28;;;1.59;83.89
79123;BME280;68526;44.600;26.032;2023-12-20T00:04:08;100754.09;;;1.56;83.73
79123;BME280;68526;44.600;26.032;2023-12-20T00:04:24;100758.09;;;1.54;83.94
79123;BME280;68526;44.600;26.032;2023-12-20T00:04:40;100756.81;;;1.56;83.93
79123;BME280;68526;44.600;26.032;2023-12-20T00:04:56;100750.00;;;1.54;83.84
79123;BME280;68526;44.600;26.032;2023-12-20T00:05:12;100750.34;;;1.57;83.43
79123;BME280;68526;44.600;26.032;2023-12-20T00:05:28;100750.91;;;1.59;83.87
79123;BME280;68526;44.600;26.032;2023-12-20T00:05:45;100747.16;;;1.60;83.37
79123;BME280;68526;44.600;26.032;2023-12-20T00:06:01;100746.91;;;1.62;83.56
79123;BME280;68526;44.600;26.032;2023-12-20T00:06:17;100746.91;;;1.62;83.36
79123;BME280;68526;44.600;26.032;2023-12-20T00:06:33;100757.44;;;1.64;82.70
79123;BME280;68526;44.600;26.032;2023-12-20T00:06:49;100747.72;;;1.63;82.94
79123;BME280;68526;44.600;26.032;2023-12-20T00:07:05;100744.19;;;1.62;82.81
79123;BME280;68526;44.600;26.032;2023-12-20T00:07:20;100752.56;;;1.60;82.68
79123;BME280;68526;44.600;26.032;2023-12-20T00:07:36;100746.09;;;1.62;83.06
79123;BME280;68526;44.600;26.032;2023-12-20T00:07:53;100745.25;;;1.61;82.82
79123;BME280;68526;44.600;26.032;2023-12-20T00:08:09;100736.91;;;1.63;82.65
79123;BME280;68526;44.600;26.032;2023-12-20T00:08:25;100744.19;;;1.62;83.20
79123;BME280;68526;44.600;26.032;2023-12-20T00:08:41;100742.03;;;1.64;82.99
79123;BME280;68526;44.600;26.032;2023-12-20T00:08:57;100742.84;;;1.65;82.63
79123;BME280;68526;44.600;26.032;2023-12-20T00:09:13;100742.63;;;1.66;82.59
79123;BME280;68526;44.600;26.032;2023-12-20T00:09:29;100748.78;;;1.62;83.30
79123;BME280;68526;44.600;26.032;2023-12-20T00:09:46;100743.06;;;1.58;83.86
79123;BME280;68526;44.600;26.032;2023-12-20T00:10:02;100749.25;;;1.58;83.73
79123;BME280;68526;44.600;26.032;2023-12-20T00:10:18;100746.31;;;1.60;83.33
79123;BME280;68526;44.600;26.032;2023-12-20T00:10:34;100743.38;;;1.62;83.66
79123;BME280;68526;44.600;26.032;2023-12-20T00:10:50;100747.72;;;1.63;83.06
79123;BME280;68526;44.600;26.032;2023-12-20T00:11:06;100742.56;;;1.61;83.59
79123;BME280;68526;44.600;26.032;2023-12-20T00:11:21;100745.00;;;1.63;83.10
79123;BME280;68526;44.600;26.032;2023-12-20T00:11:37;100744.19;;;1.62;83.32
79123;BME280;68526;44.600;26.032;2023-12-20T00:11:54;100740.34;;;1.58;83.15
79123;BME280;68526;44.600;26.032;2023-12-20T00:12:10;100740.09;;;1.59;83.58
79123;BME280;68526;44.600;26.032;2023-12-20T00:12:26;100748.44;;;1.58;83.81
79123;BME280;68526;44.600;26.032;2023-12-20T00:12:42;100739.88;;;1.61;83.28
79123;BME280;68526;44.600;26.032;2023-12-20T00:12:58;100742.56;;;1.61;83.48
79123;BME280;68526;44.600;26.032;2023-12-20T00:13:14;100742.56;;;1.61;83.65
79123;BME280;68526;44.600;26.032;2023-12-20T00:13:30;100753.59;;;1.59;83.44
79123;BME280;68526;44.600;26.032;2023-12-20T00:13:46;100738.72;;;1.57;83.93
79123;BME280;68526;44.600;26.032;2023-12-20T00:14:03;100748.97;;;1.55;84.10
79123;BME280;68526;44.600;26.032;2023-12-20T00:14:19;100739.47;;;1.52;83.89
79123;BME280;68526;44.600;26.032;2023-12-20T00:14:34;100744.59;;;1.54;83.69
79123;BME280;68526;44.600;26.032;2023-12-20T00:14:50;100737.09;;;1.56;83.79
79123;BME280;68526;44.600;26.032;2023-12-20T00:15:07;100741.44;;;1.57;83.67
79123;BME280;68526;44.600;26.032;2023-12-20T00:15:23;100741.16;;;1.58;83.50
79123;BME280;68526;44.600;26.032;2023-12-20T00:15:39;100741.16;;;1.58;83.63
79123;BME280;68526;44.600;26.032;2023-12-20T00:15:56;100743.06;;;1.58;83.68
79123;BME280;68526;44.600;26.032;2023-12-20T00:16:12;100740.09;;;1.59;83.65
79123;BME280;68526;44.600;26.032;2023-12-20T00:16:28;100741.50;;;1.62;83.22
79123;BME280;68526;44.600;26.032;2023-12-20T00:16:44;100740.69;;;1.62;83.51
79123;BME280;68526;44.600;26.032;2023-12-20T00:16:59;100739.06;;;1.60;83.92
79123;BME280;68526;44.600;26.032;2023-12-20T00:17:15;100740.41;;;1.63;83.39
79123;BME280;68526;44.600;26.032;2023-12-20T00:17:31;100745.81;;;1.63;83.63
79123;BME280;68526;44.600;26.032;2023-12-20T00:17:47;100742.84;;;1.65;83.42
79123;BME280;68526;44.600;26.032;2023-12-20T00:18:04;100733.38;;;1.62;83.24
79123;BME280;68526;44.600;26.032;2023-12-20T00:18:20;100749.59;;;1.62;83.31
79123;BME280;68526;44.600;26.032;2023-12-20T00:18:38;100741.75;;;1.60;83.33
79123;BME280;68526;44.600;26.032;2023-12-20T00:18:54;100741.75;;;1.60;83.78
79123;BME280;68526;44.600;26.032;2023-12-20T00:19:10;100745.56;;;1.65;83.58
79123;BME280;68526;44.600;26.032;2023-12-20T00:19:25;100743.44;;;1.67;83.52
79123;BME280;68526;44.600;26.032;2023-12-20T00:19:41;100739.66;;;1.68;83.55
79123;BME280;68526;44.600;26.032;2023-12-20T00:19:58;100746.69;;;1.69;83.63
79123;BME280;68526;44.600;26.032;2023-12-20T00:20:14;100739.94;;;1.66;83.29
79123;BME280;68526;44.600;26.032;2023-12-20T00:20:30;100738.28;;;1.65;83.69
79123;BME280;68526;44.600;26.032;2023-12-20T00:20:46;100741.78;;;1.66;83.71
79123;BME280;68526;44.600;26.032;2023-12-20T00:21:02;100735.91;;;1.69;83.13
79123;BME280;68526;44.600;26.032;2023-12-20T00:21:18;100739.16;;;1.71;83.46
79123;BME280;68526;44.600;26.032;2023-12-20T00:21:34;100734.81;;;1.70;83.68
79123;BME280;68526;44.600;26.032;2023-12-20T00:21:51;100737.78;;;1.68;83.48
79123;BME280;68526;44.600;26.032;2023-12-20T00:22:07;100730.25;;;1.70;83.24
79123;BME280;68526;44.600;26.032;2023-12-20T00:22:23;100734.56;;;1.71;83.08
79123;BME280;68526;44.600;26.032;2023-12-20T00:22:39;100734.88;;;1.75;83.26
79123;BME280;68526;44.600;26.032;2023-12-20T00:22:56;100728.34;;;1.71;83.40
79123;BME280;68526;44.600;26.032;2023-12-20T00:23:13;100733.53;;;1.72;83.60
79123;BME280;68526;44.600;26.032;2023-12-20T00:23:30;100727.88;;;1.74;83.40
79123;BME280;68526;44.600;26.032;2023-12-20T00:23:46;100735.63;;;1.70;83.42
79123;BME280;68526;44.600;26.032;2023-12-20T00:24:02;100734.00;;;1.69;83.17
79123;BME280;68526;44.600;26.032;2023-12-20T00:24:17;100726.47;;;1.71;83.49
79123;BME280;68526;44.600;26.032;2023-12-20T00:24:33;100733.75;;;1.71;83.41
79123;BME280;68526;44.600;26.032;2023-12-20T00:24:49;100725.66;;;1.71;83.52
79123;BME280;68526;44.600;26.032;2023-12-20T00:25:07;100728.13;;;1.72;83.73
79123;BME280;68526;44.600;26.032;2023-12-20T00:25:23;100734.06;;;1.74;83.54
79123;BME280;68526;44.600;26.032;2023-12-20T00:25:39;100729.16;;;1.71;83.71
79123;BME280;68526;44.600;26.032;2023-12-20T00:25:55;100726.97;;;1.68;83.40
79123;BME280;68526;44.600;26.032;2023-12-20T00:26:12;100718.69;;;1.75;83.51
79123;BME280;68526;44.600;26.032;2023-12-20T00:26:28;100719.16;;;1.72;83.09
79123;BME280;68526;44.600;26.032;2023-12-20T00:26:45;100723.00;;;1.76;83.30
79123;BME280;68526;44.600;26.032;2023-12-20T00:27:01;100722.75;;;1.77;83.00
79123;BME280;68526;44.600;26.032;2023-12-20T00:27:16;100725.78;;;1.81;83.26
79123;BME280;68526;44.600;26.032;2023-12-20T00:27:32;100731.19;;;1.81;83.04
79123;BME280;68526;44.600;26.032;2023-12-20T00:27:48;100723.34;;;1.79;82.85
79123;BME280;68526;44.600;26.032;2023-12-20T00:28:04;100728.47;;;1.81;83.00
79123;BME280;68526;44.600;26.032;2023-12-20T00:28:20;100722.53;;;1.79;82.75
79123;BME280;68526;44.600;26.032;2023-12-20T00:28:37;100725.50;;;1.82;83.02
79123;BME280;68526;44.600;26.032;2023-12-20T00:28:53;100724.69;;;1.82;82.93
79123;BME280;68526;44.600;26.032;2023-12-20T00:29:09;100726.31;;;1.83;82.69
79123;BME280;68526;44.600;26.032;2023-12-20T00:29:25;100731.72;;;1.83;83.15
79123;BME280;68526;44.600;26.032;2023-12-20T00:29:41;100726.66;;;1.86;83.10
79123;BME280;68526;44.600;26.032;2023-12-20T00:29:58;100726.66;;;1.86;82.93
79123;BME280;68526;44.600;26.032;2023-12-20T00:30:14;100725.50;;;1.82;82.58
79123;BME280;68526;44.600;26.032;2023-12-20T00:30:30;100725.78;;;1.81;82.82
79123;BME280;68526;44.600;26.032;2023-12-20T00:30:47;100712.53;;;1.79;82.88
79123;BME280;68526;44.600;26.032;2023-12-20T00:31:03;100723.34;;;1.79;82.52
79123;BME280;68526;44.600;26.032;2023-12-20T00:31:19;100729.63;;;1.85;82.40
79123;BME280;68526;44.600;26.032;2023-12-20T00:31:35;100725.50;;;1.82;82.69
79123;BME280;68526;44.600;26.032;2023-12-20T00:31:51;100726.59;;;1.81;82.66
79123;BME280;68526;44.600;26.032;2023-12-20T00:32:07;100722.00;;;1.82;82.63
79123;BME280;68526;44.600;26.032;2023-12-20T00:32:23;100723.88;;;1.81;82.87
79123;BME280;68526;44.600;26.032;2023-12-20T00:32:39;100729.63;;;1.85;82.49
79123;BME280;68526;44.600;26.032;2023-12-20T00:33:01;100719.63;;;1.85;82.63
79123;BME280;68526;44.600;26.032;2023-12-20T00:33:18;100723.63;;;1.83;82.77
79123;BME280;68526;44.600;26.032;2023-12-20T00:33:34;100724.44;;;1.83;82.73
79123;BME280;68526;44.600;26.032;2023-12-20T00:33:51;100720.44;;;1.86;82.51
79123;BME280;68526;44.600;26.032;2023-12-20T00:34:07;100720.44;;;1.86;82.46
79123;BME280;68526;44.600;26.032;2023-12-20T00:34:23;100724.44;;;1.83;82.90
79123;BME280;68526;44.600;26.032;2023-12-20T00:34:39;100718.56;;;1.86;82.50
79123;BME280;68526;44.600;26.032;2023-12-20T00:34:56;100716.16;;;1.90;82.67
79123;BME280;68526;44.600;26.032;2023-12-20T00:35:12;100715.09;;;1.91;81.97
79123;BME280;68526;44.600;26.032;2023-12-20T00:35:28;100718.88;;;1.90;82.37
79123;BME280;68526;44.600;26.032;2023-12-20T00:35:44;100715.59;;;1.88;82.35
79123;BME280;68526;44.600;26.032;2023-12-20T00:36:00;100719.09;;;1.88;82.35
79123;BME280;68526;44.600;26.032;2023-12-20T00:36:16;100717.22;;;1.89;82.91
79123;BME280;68526;44.600;26.032;2023-12-20T00:36:32;100720.19;;;1.87;82.70
79123;BME280;68526;44.600;26.032;2023-12-20T00:36:49;100719.91;;;1.89;82.89
79123;BME280;68526;44.600;26.032;2023-12-20T00:37:05;100721.25;;;1.86;82.64
79123;BME280;68526;44.600;26.032;2023-12-20T00:37:21;100723.63;;;1.83;82.98
79123;BME280;68526;44.600;26.032;2023-12-20T00:37:37;100721.19;;;1.81;83.07
79123;BME280;68526;44.600;26.032;2023-12-20T00:37:53;100723.00;;;1.76;83.20
79123;BME280;68526;44.600;26.032;2023-12-20T00:38:09;100718.75;;;1.80;83.28
79123;BME280;68526;44.600;26.032;2023-12-20T00:38:26;100713.34;;;1.80;83.54
79123;BME280;68526;44.600;26.032;2023-12-20T00:38:42;100719.22;;;1.77;83.43
79123;BME280;68526;44.600;26.032;2023-12-20T00:38:58;100722.53;;;1.79;83.26
79123;BME280;68526;44.600;26.032;2023-12-20T00:39:15;100724.97;;;1.80;83.40
79123;BME280;68526;44.600;26.032;2023-12-20T00:39:31;100720.94;;;1.83;83.07
79123;BME280;68526;44.600;26.032;2023-12-20T00:39:48;100718.81;;;1.85;83.28
79123;BME280;68526;44.600;26.032;2023-12-20T00:40:05;100720.69;;;1.84;83.13
79123;BME280;68526;44.600;26.032;2023-12-20T00:40:21;100720.13;;;1.82;82.96
79123;BME280;68526;44.600;26.032;2023-12-20T00:40:37;100721.50;;;1.85;83.22
79123;BME280;68526;44.600;26.032;2023-12-20T00:40:53;100717.72;;;1.86;83.22
79123;BME280;68526;44.600;26.032;2023-12-20T00:41:09;100718.28;;;1.88;82.91
79123;BME280;68526;44.600;26.032;2023-12-20T00:41:26;100718.00;;;1.84;83.13
79123;BME280;68526;44.600;26.032;2023-12-20T00:41:42;100715.28;;;1.84;83.30
79123;BME280;68526;44.600;26.032;2023-12-20T00:41:58;100720.44;;;1.86;83.03
79123;BME280;68526;44.600;26.032;2023-12-20T00:42:14;100717.72;;;1.86;83.15
79123;BME280;68526;44.600;26.032;2023-12-20T00:42:30;100713.69;;;1.88;83.14
79123;BME280;68526;44.600;26.032;2023-12-20T00:42:46;100712.88;;;1.88;82.95
79123;BME280;68526;44.600;26.032;2023-12-20T00:43:02;100714.50;;;1.89;82.81
79123;BME280;68526;44.600;26.032;2023-12-20T00:43:19;100711.56;;;1.91;82.67
79123;BME280;68526;44.600;26.032;2023-12-20T00:43:35;100711.00;;;1.88;82.85
79123;BME280;68526;44.600;26.032;2023-12-20T00:43:51;100705.53;;;1.83;83.45
79123;BME280;68526;44.600;26.032;2023-12-20T00:44:07;100714.50;;;1.89;82.83
79123;BME280;68526;44.600;26.032;2023-12-20T00:44:23;100705.03;;;1.86;82.78
79123;BME280;68526;44.600;26.032;2023-12-20T00:44:39;100715.78;;;1.81;83.07
79123;BME280;68526;44.600;26.032;2023-12-20T00:44:55;100708.00;;;1.85;83.09
79123;BME280;68526;44.600;26.032;2023-12-20T00:45:11;100702.06;;;1.88;83.25
79123;BME280;68526;44.600;26.032;2023-12-20T00:45:27;100703.97;;;1.87;83.09
79123;BME280;68526;44.600;26.032;2023-12-20T00:45:44;100706.94;;;1.86;82.87
79123;BME280;68526;44.600;26.032;2023-12-20T00:46:00;100701.25;;;1.87;82.90
79123;BME280;68526;44.600;26.032;2023-12-20T00:46:16;100703.69;;;1.89;82.96
79123;BME280;68526;44.600;26.032;2023-12-20T00:46:32;100700.72;;;1.85;82.76
79123;BME280;68526;44.600;26.032;2023-12-20T00:46:48;100698.81;;;1.86;83.16
79123;BME280;68526;44.600;26.032;2023-12-20T00:47:04;100703.97;;;1.87;83.04
79123;BME280;68526;44.600;26.032;2023-12-20T00:47:20;100701.78;;;1.84;82.75
79123;BME280;68526;44.600;26.032;2023-12-20T00:47:37;100701.25;;;1.87;82.94
79123;BME280;68526;44.600;26.032;2023-12-20T00:47:53;100696.94;;;1.86;82.91
79123;BME280;68526;44.600;26.032;2023-12-20T00:48:09;100698.81;;;1.86;82.63
79123;BME280;68526;44.600;26.032;2023-12-20T00:48:25;100702.59;;;1.85;82.72
79123;BME280;68526;44.600;26.032;2023-12-20T00:48:42;100692.34;;;1.87;83.02
79123;BME280;68526;44.600;26.032;2023-12-20T00:49:02;100691.00;;;1.90;82.89
79123;BME280;68526;44.600;26.032;2023-12-20T00:49:18;100694.28;;;1.92;82.50
79123;BME280;68526;44.600;26.032;2023-12-20T00:49:34;100698.88;;;1.91;82.68
79123;BME280;68526;44.600;26.032;2023-12-20T00:49:51;100698.06;;;1.91;83.01
79123;BME280;68526;44.600;26.032;2023-12-20T00:50:07;100696.72;;;1.93;82.80
79123;BME280;68526;44.600;26.032;2023-12-20T00:50:23;100692.94;;;1.94;82.80
79123;BME280;68526;44.600;26.032;2023-12-20T00:50:39;100688.88;;;1.92;82.24
79123;BME280;68526;44.600;26.032;2023-12-20T00:50:55;100698.34;;;1.94;82.50
79123;BME280;68526;44.600;26.032;2023-12-20T00:51:11;100685.66;;;1.95;82.50
79123;BME280;68526;44.600;26.032;2023-12-20T00:51:27;100686.25;;;1.97;82.63
79123;BME280;68526;44.600;26.032;2023-12-20T00:51:44;100690.56;;;1.98;82.22
79123;BME280;68526;44.600;26.032;2023-12-20T00:51:59;100685.72;;;2.00;82.02
79123;BME280;68526;44.600;26.032;2023-12-20T00:52:15;100689.22;;;2.00;82.47
79123;BME280;68526;44.600;26.032;2023-12-20T00:52:32;100681.94;;;2.01;82.42
79123;BME280;68526;44.600;26.032;2023-12-20T00:52:48;100689.00;;;2.02;82.13
79123;BME280;68526;44.600;26.032;2023-12-20T00:53:04;100687.13;;;2.02;81.93
79123;BME280;68526;44.600;26.032;2023-12-20T00:53:21;100689.81;;;2.02;82.25
79123;BME280;68526;44.600;26.032;2023-12-20T00:53:38;100690.63;;;2.03;81.73
79123;BME280;68526;44.600;26.032;2023-12-20T00:53:54;100689.81;;;2.02;81.77
79123;BME280;68526;44.600;26.032;2023-12-20T00:54:10;100690.84;;;2.01;81.58
79123;BME280;68526;44.600;26.032;2023-12-20T00:54:26;100687.66;;;2.04;81.26
79123;BME280;68526;44.600;26.032;2023-12-20T00:54:42;100687.94;;;2.03;81.33
79123;BME280;68526;44.600;26.032;2023-12-20T00:54:57;100691.94;;;2.00;81.07
79123;BME280;68526;44.600;26.032;2023-12-20T00:55:13;100681.91;;;1.96;81.16
79123;BME280;68526;44.600;26.032;2023-12-20T00:55:30;100692.94;;;1.94;81.60
79123;BME280;68526;44.600;26.032;2023-12-20T00:55:46;100687.06;;;1.97;81.44
79123;BME280;68526;44.600;26.032;2023-12-20T00:56:03;100684.63;;;1.96;81.48
79123;BME280;68526;44.600;26.032;2023-12-20T00:56:19;100692.94;;;1.94;81.00
79123;BME280;68526;44.600;26.032;2023-12-20T00:56:35;100680.53;;;1.93;81.38
79123;BME280;68526;44.600;26.032;2023-12-20T00:56:51;100682.16;;;1.94;80.92
79123;BME280;68526;44.600;26.032;2023-12-20T00:57:07;100689.69;;;1.92;80.96
79123;BME280;68526;44.600;26.032;2023-12-20T00:57:24;100685.38;;;1.91;81.06
79123;BME280;68526;44.600;26.032;2023-12-20T00:57:40;100677.25;;;1.91;80.81
79123;BME280;68526;44.600;26.032;2023-12-20T00:57:56;100678.91;;;1.92;80.88
79123;BME280;68526;44.600;26.032;2023-12-20T00:58:12;100686.19;;;1.92;81.14
79123;BME280;68526;44.600;26.032;2023-12-20T00:58:30;100685.66;;;1.95;81.33
79123;BME280;68526;44.600;26.032;2023-12-20T00:58:46;100691.88;;;1.95;81.24
79123;BME280;68526;44.600;26.032;2023-12-20T00:59:03;100672.16;;;1.95;80.81
79123;BME280;68526;44.600;26.032;2023-12-20T00:59:19;100682.16;;;1.94;80.57
79123;BME280;68526;44.600;26.032;2023-12-20T00:59:35;100684.03;;;1.94;80.50
79123;BME280;68526;44.600;26.032;2023-12-20T00:59:51;100687.00;;;1.92;80.95
79123;BME280;68526;44.600;26.032;2023-12-20T01:00:08;100677.50;;;1.90;80.47
79123;BME280;68526;44.600;26.032;2023-12-20T01:00:25;100684.28;;;1.92;80.89
79123;BME280;68526;44.600;26.032;2023-12-20T01:05:19;100690.03;;;1.96;80.84
79123;BME280;68526;44.600;26.032;2023-12-20T01:05:38;100694.91;;;1.99;81.16
79123;BME280;68526;44.600;26.032;2023-12-20T01:05:54;100685.66;;;1.95;80.61
79123;BME280;68526;44.600;26.032;2023-12-20T01:06:10;100696.47;;;1.95;80.20
79123;BME280;68526;44.600;26.032;2023-12-20T01:06:26;100684.03;;;1.94;80.47
79123;BME280;68526;44.600;26.032;2023-12-20T01:06:42;100686.44;;;1.90;80.09
79123;BME280;68526;44.600;26.032;2023-12-20T01:06:57;100690.78;;;1.91;79.62
79123;BME280;68526;44.600;26.032;2023-12-20T01:07:13;100690.47;;;1.87;79.76
79123;BME280;68526;44.600;26.032;2023-12-20T01:07:30;100696.69;;;1.88;79.32
79123;BME280;68526;44.600;26.032;2023-12-20T01:07:46;100686.88;;;1.82;79.19
79123;BME280;68526;44.600;26.032;2023-12-20T01:08:02;100689.09;;;1.85;79.25
79123;BME280;68526;44.600;26.032;2023-12-20T01:08:18;100688.50;;;1.83;78.93
79123;BME280;68526;44.600;26.032;2023-12-20T01:08:34;100687.69;;;1.82;79.15
79123;BME280;68526;44.600;26.032;2023-12-20T01:08:50;100684.75;;;1.84;79.47
79123;BME280;68526;44.600;26.032;2023-12-20T01:09:06;100687.19;;;1.85;79.41
79123;BME280;68526;44.600;26.032;2023-12-20T01:09:23;100685.31;;;1.86;79.40
79123;BME280;68526;44.600;26.032;2023-12-20T01:09:41;100683.63;;;1.80;78.53
79123;BME280;68526;44.600;26.032;2023-12-20T01:09:57;100686.88;;;1.82;78.96
79123;BME280;68526;44.600;26.032;2023-12-20T01:10:13;100685.50;;;1.79;79.39
79123;BME280;68526;44.600;26.032;2023-12-20T01:10:29;100687.09;;;1.75;79.35
79123;BME280;68526;44.600;26.032;2023-12-20T01:10:45;100683.00;;;1.73;79.66
79123;BME280;68526;44.600;26.032;2023-12-20T01:11:03;100685.19;;;1.76;79.41
79123;BME280;68526;44.600;26.032;2023-12-20T01:11:20;100682.50;;;1.76;79.82
79123;BME280;68526;44.600;26.032;2023-12-20T01:11:37;100683.81;;;1.73;79.20
79123;BME280;68526;44.600;26.032;2023-12-20T01:11:53;100686.53;;;1.73;79.54
79123;BME280;68526;44.600;26.032;2023-12-20T01:12:09;100683.50;;;1.70;79.46
79123;BME280;68526;44.600;26.032;2023-12-20T01:12:25;100682.19;;;1.72;79.76
79123;BME280;68526;44.600;26.032;2023-12-20T01:12:43;100683.81;;;1.73;79.64
79123;BME280;68526;44.600;26.032;2023-12-20T01:12:59;100681.34;;;1.72;79.24
79123;BME280;68526;44.600;26.032;2023-12-20T01:13:15;100674.59;;;1.69;80.46
79123;BME280;68526;44.600;26.032;2023-12-20T01:13:30;100685.44;;;1.74;79.90
79123;BME280;68526;44.600;26.032;2023-12-20T01:13:46;100688.72;;;1.76;79.54
79123;BME280;68526;44.600;26.032;2023-12-20T01:14:02;100687.03;;;1.70;81.02
79123;BME280;68526;44.600;26.032;2023-12-20T01:14:18;100681.94;;;1.74;80.45
79123;BME280;68526;44.600;26.032;2023-12-20T01:14:35;100681.94;;;1.74;80.00
79123;BME280;68526;44.600;26.032;2023-12-20T01:14:51;100681.63;;;1.70;80.75
79123;BME280;68526;44.600;26.032;2023-12-20T01:15:08;100683.00;;;1.73;81.16
79123;BME280;68526;44.600;26.032;2023-12-20T01:15:24;100680.88;;;1.75;81.05
79123;BME280;68526;44.600;26.032;2023-12-20T01:15:39;100684.38;;;1.75;81.33
79123;BME280;68526;44.600;26.032;2023-12-20T01:15:55;100687.34;;;1.74;81.72
79123;BME280;68526;44.600;26.032;2023-12-20T01:16:12;100683.31;;;1.76;81.33
79123;BME280;68526;44.600;26.032;2023-12-20T01:16:28;100682.75;;;1.74;81.48
79123;BME280;68526;44.600;26.032;2023-12-20T01:16:44;100674.31;;;1.71;81.52
79123;BME280;68526;44.600;26.032;2023-12-20T01:17:01;100676.84;;;1.77;81.57
79123;BME280;68526;44.600;26.032;2023-12-20T01:17:17;100684.69;;;1.79;81.59
79123;BME280;68526;44.600;26.032;2023-12-20T01:17:32;100686.31;;;1.80;81.41
79123;BME280;68526;44.600;26.032;2023-12-20T01:17:48;100686.31;;;1.80;81.58
79123;BME280;68526;44.600;26.032;2023-12-20T01:18:05;100684.44;;;1.80;82.06
79123;BME280;68526;44.600;26.032;2023-12-20T01:18:22;100693.03;;;1.77;82.19
79123;BME280;68526;44.600;26.032;2023-12-20T01:18:38;100686.59;;;1.78;82.33
79123;BME280;68526;44.600;26.032;2023-12-20T01:18:54;100685.19;;;1.76;82.18
79123;BME280;68526;44.600;26.032;2023-12-20T01:19:10;100687.41;;;1.79;81.98
79123;BME280;68526;44.600;26.032;2023-12-20T01:19:26;100689.28;;;1.78;82.19
79123;BME280;68526;44.600;26.032;2023-12-20T01:19:43;100693.63;;;1.79;81.77
79123;BME280;68526;44.600;26.032;2023-12-20T01:19:59;100685.50;;;1.79;82.27
79123;BME280;68526;44.600;26.032;2023-12-20T01:20:16;100687.63;;;1.77;82.33
79123;BME280;68526;44.600;26.032;2023-12-20T01:20:33;100686.31;;;1.80;82.45
79123;BME280;68526;44.600;26.032;2023-12-20T01:20:49;100681.41;;;1.77;82.23
79123;BME280;68526;44.600;26.032;2023-12-20T01:21:05;100680.13;;;1.79;82.01
79123;BME280;68526;44.600;26.032;2023-12-20T01:21:21;100680.94;;;1.80;82.41
79123;BME280;68526;44.600;26.032;2023-12-20T01:21:37;100685.81;;;1.83;82.44
79123;BME280;68526;44.600;26.032;2023-12-20T01:21:53;100678.78;;;1.82;82.08
79123;BME280;68526;44.600;26.032;2023-12-20T01:22:09;100673.38;;;1.82;82.03
79123;BME280;68526;44.600;26.032;2023-12-20T01:22:26;100680.16;;;1.84;82.14
79123;BME280;68526;44.600;26.032;2023-12-20T01:22:42;100676.34;;;1.80;82.40
79123;BME280;68526;44.600;26.032;2023-12-20T01:22:58;100685.25;;;1.81;82.61
79123;BME280;68526;44.600;26.032;2023-12-20T01:23:14;100676.06;;;1.82;82.31
79123;BME280;68526;44.600;26.032;2023-12-20T01:23:30;100681.22;;;1.83;81.99
79123;BME280;68526;44.600;26.032;2023-12-20T01:23:46;100679.91;;;1.86;82.25
79123;BME280;68526;44.600;26.032;2023-12-20T01:24:03;100667.72;;;1.83;81.77
79123;BME280;68526;44.600;26.032;2023-12-20T01:24:19;100675.00;;;1.83;82.07
79123;BME280;68526;44.600;26.032;2023-12-20T01:24:36;100676.06;;;1.82;81.94
79123;BME280;68526;44.600;26.032;2023-12-20T01:24:52;100682.88;;;1.84;81.89
79123;BME280;68526;44.600;26.032;2023-12-20T01:25:08;100668.56;;;1.84;81.86
79123;BME280;68526;44.600;26.032;2023-12-20T01:25:24;100669.59;;;1.83;82.37
79123;BME280;68526;44.600;26.032;2023-12-20T01:25:40;100638.13;;;1.67;82.17
79123;BME280;68526;44.600;26.032;2023-12-20T01:25:56;100671.81;;;1.86;81.96
79123;BME280;68526;44.600;26.032;2023-12-20T01:26:11;100669.91;;;1.86;82.32
79123;BME280;68526;44.600;26.032;2023-12-20T01:26:27;100670.72;;;1.87;82.33
79123;BME280;68526;44.600;26.032;2023-12-20T01:26:44;100668.56;;;1.89;81.79
79123;BME280;68526;44.600;26.032;2023-12-20T01:27:00;100672.31;;;1.83;81.91
79123;BME280;68526;44.600;26.032;2023-12-20T01:27:16;100675.81;;;1.83;81.72
79123;BME280;68526;44.600;26.032;2023-12-20T01:27:32;100668.28;;;1.85;81.69
79123;BME280;68526;44.600;26.032;2023-12-20T01:27:48;100669.84;;;1.81;82.04
79123;BME280;68526;44.600;26.032;2023-12-20T01:28:04;100671.47;;;1.82;82.12
79123;BME280;68526;44.600;26.032;2023-12-20T01:28:20;100675.59;;;1.85;81.93
79123;BME280;68526;44.600;26.032;2023-12-20T01:28:37;100667.22;;;1.86;82.40
79123;BME280;68526;44.600;26.032;2023-12-20T01:28:53;100669.91;;;1.86;82.13
79123;BME280;68526;44.600;26.032;2023-12-20T01:29:09;100660.38;;;1.79;82.47
79123;BME280;68526;44.600;26.032;2023-12-20T01:29:25;100669.91;;;1.86;82.25